Terminal Aerodrome Forecast
Issued by NWS

Home | Current Version | Previous Version | Text Only | Print | Product List | Glossary On
Versions: 1 2 3 4 5 6 7 8 9 10 11 12 13 14 15 16
000
FTUS46 KSEW 202300
TAFBLI
TAF
KBLI 202324Z 2100/2124 14017G22KT 6SM -RA FEW025 BKN060 OVC080
     FM210100 16015G22KT 6SM -RA OVC015
     FM211600 19008KT P6SM -RA OVC025
     FM211800 19010KT P6SM VCSH OVC025=

USA.gov is the U.S. government's official web portal to all federal, state and local government web resources and services.